Pagrindinis puslapis
METAR-TAF:

METAR-TAF

Oro uostai :

Dillingham, Aliaska, Jungtinės Amerikos Valstijos

platuma: 59-03N, ilguma: 158-31W, Aukštis: 26 m

Dabartinis oras

Ataskaita buvo paskelbta 14 minutes, ne 09:56 UTC
Vėjas 10 kt iš Šiaurės
Temperatūra -10°C
Drėgmė 56%
Slėgis 1000 hPa
Matomumas: 16.1 km
Su prošvaistėmis ne aukštis 6000 ft

METAR: PADL 260956Z AUTO 01010KT 10SM BKN060 M10/M17 A2953 RMK AO2 SLP003 T11001172 FZRANO PNO $

Laikas: 01:10 (10:10 UTC)

Prognozė

Ataskaita buvo paskelbta 4 valandos ir 47 minutes, ne 05:23 UTC
Prognozė galioja nuo 26 metu 06 UTC su 27 metu 06 UTC
Vėjas 18 kt iš Šiaurės su gūsio iki 25 kt
Matomumas: 10 km
Giedras dangus
Nuo 26 metu 1200 UTC
Vėjas 13 kt iš Šiaurės/Šiaurės Vakarų
Matomumas: 10 km
Giedras dangus

TAF: PADL 260523Z 2606/2706 36018G25KT P6SM SKC FM261200 34013KT P6SM SKC

Orai ataskaitas ir orų prognozės (METAR, TAF).

turimą stotys yra geltonos ir raudonos taškus žemėlapyje.

Perkelti pele per norėdami pamatyti stoties vardą.

Tada spustelėkite, norėdami matyti oro stebėjimo ir prognozės.

Norėdami pakeisti žemėlapį: spustelėkite ant žalios mygtukų su juodo kryžiaus žemyn,; žalią mygtuką su brūkšneliu, jei norite nutolinti; arba žalių rodyklių gretimoms žemėlapius.


METAR-TAF: